Time;durP1;ratioP1;P1;durP2;ratioP2;P2;SDS_P1;SDS_P2;PMS_P1;PMS_P2;Temp;Humidity;BMP_temperature;BMP_pressure;BME280_temperature;BME280_humidity;BME280_pressure;Samples;Min_cycle;Max_cycle;Signal;HPM_P1;HPM_P2
2023/08/26 00:03:20;;;;;;;;;;;23.50;92.90;;;22.49;84.41;99739.53;9778624;29;97367;-96
2023/08/26 00:08:23;;;;;;;;;;;23.50;92.60;;;22.53;84.60;99738.75;9762236;29;97607;-95
2023/08/26 00:13:27;;;;;;;;;;;23.50;93.00;;;22.48;84.92;99740.59;9777253;29;97146;-95
2023/08/26 00:18:31;;;;;;;;;;;23.40;93.10;;;22.44;85.58;99743.03;9773794;29;96748;-96
2023/08/26 00:23:35;;;;;;;;;;;23.40;93.20;;;22.40;85.55;99733.78;9775940;29;96863;-96
2023/08/26 00:28:38;;;;;;;;;;;23.30;92.80;;;22.43;85.48;99725.13;9778512;29;96764;-96
2023/08/26 00:33:42;;;;;;;;;;;23.40;92.80;;;22.41;86.09;99725.38;9792300;29;97248;-95
2023/08/26 00:38:45;;;;;;;;;;;23.50;93.50;;;22.51;85.78;99740.09;9763650;29;96732;-96
2023/08/26 00:43:49;;;;;;;;;;;23.40;93.10;;;22.44;86.05;99729.50;9775294;29;96772;-96
2023/08/26 00:48:52;;;;;;;;;;;23.50;93.20;;;22.38;87.34;99749.47;9762563;29;98369;-96
2023/08/26 00:53:56;;;;;;;;;;;23.40;94.30;;;22.34;87.45;99762.69;9773948;29;96638;-96
2023/08/26 00:58:59;;;;;;;;;;;23.30;94.00;;;22.30;87.53;99766.16;9773038;29;97315;-96
2023/08/26 01:04:03;;;;;;;;;;;23.30;94.50;;;22.21;88.06;99771.22;9775941;29;97239;-96
2023/08/26 01:09:07;;;;;;;;;;;23.20;94.20;;;22.24;88.05;99781.50;9794655;29;96715;-96
2023/08/26 01:14:27;;;;;;;;;;;23.20;94.30;;;22.25;87.74;99775.06;9773544;29;97188;-95
2023/08/26 01:19:35;;;;;;;;;;;23.20;94.20;;;22.24;88.00;99784.22;9781356;29;98469;-96
2023/08/26 01:24:40;;;;;;;;;;;23.20;94.40;;;22.19;88.44;99789.59;9791102;29;97260;-96
2023/08/26 01:29:44;;;;;;;;;;;23.20;94.70;;;22.26;88.79;99770.47;9789427;29;98078;-96
2023/08/26 01:34:50;;;;;;;;;;;23.20;94.90;;;22.36;89.03;99760.53;9792956;29;97094;-96
2023/08/26 01:39:57;;;;;;;;;;;23.30;95.50;;;22.39;89.14;99746.50;9782334;29;96653;-96
2023/08/26 01:45:01;;;;;;;;;;;23.40;95.30;;;22.44;88.74;99751.16;9775296;29;98063;-96
2023/08/26 01:50:05;;;;;;;;;;;23.40;94.60;;;22.43;88.98;99755.75;9772707;29;96699;-95
2023/08/26 01:55:08;;;;;;;;;;;23.40;95.20;;;22.46;89.02;99757.13;9789037;29;96768;-95
2023/08/26 02:00:13;;;;;;;;;;;23.40;95.30;;;22.39;88.86;99743.78;9801916;29;97118;-95
2023/08/26 02:05:16;;;;;;;;;;;23.30;95.20;;;22.35;88.29;99736.44;9771554;29;96677;-96
2023/08/26 02:10:20;;;;;;;;;;;23.30;95.10;;;22.30;88.74;99722.84;9793077;29;96634;-96
2023/08/26 02:15:23;;;;;;;;;;;23.30;95.20;;;22.27;88.73;99745.03;9776115;29;96762;-95
2023/08/26 02:20:27;;;;;;;;;;;23.20;95.60;;;22.14;89.09;99738.94;9777244;29;96535;-96
2023/08/26 02:25:30;;;;;;;;;;;23.10;95.30;;;22.06;89.69;99736.66;9769390;29;96669;-96
2023/08/26 02:30:34;;;;;;;;;;;23.10;95.40;;;22.05;90.02;99737.72;9775743;29;96483;-96
2023/08/26 02:35:38;;;;;;;;;;;23.00;95.60;;;21.97;90.70;99730.06;9770042;29;96503;-96
2023/08/26 02:40:41;;;;;;;;;;;23.00;96.00;;;21.87;91.13;99729.94;9776231;29;96401;-95
2023/08/26 02:45:44;;;;;;;;;;;22.90;96.00;;;21.80;91.88;99737.44;9788767;29;96647;-96
2023/08/26 02:51:01;;;;;;;;;;;22.70;96.50;;;21.73;92.62;99739.53;9777421;29;97750;-95
2023/08/26 02:56:05;;;;;;;;;;;22.70;96.70;;;21.64;93.37;99741.84;9758235;29;97656;-96
2023/08/26 03:01:08;;;;;;;;;;;22.60;97.10;;;21.56;93.94;99747.69;9774455;29;96626;-96
2023/08/26 03:06:12;;;;;;;;;;;22.60;97.00;;;21.51;94.82;99743.03;9792813;29;96895;-95
2023/08/26 03:11:15;;;;;;;;;;;22.50;97.60;;;21.46;94.91;99737.56;9791686;29;97858;-95
2023/08/26 03:16:19;;;;;;;;;;;22.40;97.60;;;21.39;94.64;99726.13;9788782;29;96695;-95
2023/08/26 03:21:24;;;;;;;;;;;22.40;98.00;;;21.26;95.75;99721.88;9787461;29;97552;-95
2023/08/26 03:26:27;;;;;;;;;;;22.30;97.90;;;21.32;95.60;99729.00;9772883;29;97204;-95
2023/08/26 03:31:31;;;;;;;;;;;22.30;97.90;;;21.30;96.03;99724.94;9771711;29;96699;-96
2023/08/26 03:36:34;;;;;;;;;;;22.30;97.90;;;21.29;95.82;99723.25;9784074;29;96575;-96
2023/08/26 03:41:38;;;;;;;;;;;22.30;98.20;;;21.21;96.65;99731.78;9777662;29;98418;-95
2023/08/26 03:46:43;;;;;;;;;;;22.20;99.20;;;21.16;97.33;99729.81;9780492;29;98575;-95
2023/08/26 03:51:46;;;;;;;;;;;22.10;98.80;;;21.08;97.52;99722.97;9801081;29;96606;-95
2023/08/26 03:56:49;;;;;;;;;;;22.10;99.20;;;21.07;97.70;99737.53;9781823;29;96669;-95
2023/08/26 04:01:53;;;;;;;;;;;22.10;99.20;;;21.02;98.23;99728.53;9783326;29;97572;-96
2023/08/26 04:06:57;;;;;;;;;;;22.10;99.50;;;21.00;98.30;99734.19;9789387;29;96717;-96
2023/08/26 04:12:00;;;;;;;;;;;22.00;99.30;;;21.05;98.65;99745.09;9784185;29;97407;-94
2023/08/26 04:17:04;;;;;;;;;;;22.00;99.50;;;21.00;98.82;99736.09;9788074;29;96634;-96
2023/08/26 04:22:08;;;;;;;;;;;22.00;99.50;;;21.00;99.29;99739.59;9801583;29;96950;-96
2023/08/26 04:27:11;;;;;;;;;;;22.10;99.50;;;21.09;99.78;99739.97;9784106;29;96623;-95
2023/08/26 04:32:14;;;;;;;;;;;22.10;99.70;;;21.09;99.82;99734.59;9775138;29;97294;-93
2023/08/26 04:37:22;;;;;;;;;;;22.20;99.30;;;21.21;100.00;99745.28;9789773;29;96648;-94
2023/08/26 04:42:25;;;;;;;;;;;22.20;99.40;;;21.28;100.00;99749.44;9779460;29;97076;-91
2023/08/26 04:47:29;;;;;;;;;;;22.30;99.20;;;21.38;100.00;99759.63;9789489;29;97278;-92
2023/08/26 04:52:32;;;;;;;;;;;22.40;99.90;;;21.45;100.00;99752.16;9778330;29;97920;-91
2023/08/26 04:57:36;;;;;;;;;;;22.40;99.90;;;21.51;100.00;99739.50;9791231;29;98111;-91
2023/08/26 05:02:40;;;;;;;;;;;22.50;99.90;;;21.69;100.00;99743.78;9766030;29;98886;-91
2023/08/26 05:07:43;;;;;;;;;;;22.70;99.90;;;21.84;99.47;99752.09;9782917;29;97486;-91
2023/08/26 05:12:47;;;;;;;;;;;22.80;99.90;;;21.99;99.27;99737.94;9765680;29;98369;-90
2023/08/26 05:17:51;;;;;;;;;;;22.90;99.80;;;22.13;98.43;99729.19;9753789;29;97407;-91
2023/08/26 05:22:55;;;;;;;;;;;23.10;99.70;;;22.35;97.77;99733.72;9782202;29;98686;-90
2023/08/26 05:27:59;;;;;;;;;;;23.30;99.90;;;22.53;96.82;99732.53;9781311;29;97081;-90
2023/08/26 05:33:04;;;;;;;;;;;23.50;99.70;;;22.69;93.66;99737.81;9781288;29;96980;-90
2023/08/26 05:38:07;;;;;;;;;;;23.70;99.50;;;22.77;89.71;99743.84;9766745;29;98315;-90
2023/08/26 05:43:11;;;;;;;;;;;23.80;98.60;;;22.97;89.56;99746.75;9745036;29;99072;-90
2023/08/26 05:48:14;;;;;;;;;;;23.90;98.20;;;23.11;86.56;99734.38;9758015;29;98461;-90
2023/08/26 05:53:18;;;;;;;;;;;24.10;97.60;;;23.31;85.94;99730.13;9771977;29;96999;-91
2023/08/26 05:58:22;;;;;;;;;;;24.30;97.30;;;23.53;84.32;99736.22;9754645;29;97398;-90
2023/08/26 06:03:25;;;;;;;;;;;24.50;96.90;;;23.67;81.91;99734.69;9781305;29;96997;-91
2023/08/26 06:08:29;;;;;;;;;;;24.70;96.30;;;23.85;82.33;99743.41;9777967;29;97502;-92
2023/08/26 06:13:32;;;;;;;;;;;24.90;96.20;;;24.10;82.14;99751.63;9758721;29;97725;-91
2023/08/26 06:18:37;;;;;;;;;;;25.10;96.10;;;24.28;81.03;99758.47;9772649;29;97362;-91
2023/08/26 06:23:41;;;;;;;;;;;25.30;95.80;;;24.45;80.79;99760.97;9762794;29;97977;-90
2023/08/26 06:28:44;;;;;;;;;;;25.50;95.70;;;24.61;77.65;99759.09;9769950;29;100958;-91
2023/08/26 06:33:48;;;;;;;;;;;25.60;95.00;;;24.77;77.57;99766.13;9765765;29;98380;-90
2023/08/26 06:38:51;;;;;;;;;;;25.80;94.90;;;24.89;76.14;99757.72;9781012;29;97023;-90
2023/08/26 06:43:55;;;;;;;;;;;25.90;94.30;;;25.10;76.40;99764.78;9774929;29;98710;-90
2023/08/26 06:48:59;;;;;;;;;;;26.10;94.40;;;25.32;75.87;99764.50;9778804;29;98601;-90
2023/08/26 06:54:03;;;;;;;;;;;26.30;94.20;;;25.52;74.79;99758.19;9765929;29;98023;-90
2023/08/26 06:59:06;;;;;;;;;;;26.60;94.00;;;25.74;73.43;99766.03;9769951;29;98281;-90
2023/08/26 07:04:11;;;;;;;;;;;26.80;93.40;;;25.95;71.61;99764.00;9775032;29;98250;-90
2023/08/26 07:09:14;;;;;;;;;;;27.00;93.10;;;26.18;70.82;99766.06;9764702;29;98535;-90
2023/08/26 07:14:18;;;;;;;;;;;27.20;92.90;;;26.41;69.96;99767.31;9741679;29;101675;-93
2023/08/26 07:19:22;;;;;;;;;;;27.40;92.60;;;26.55;67.83;99757.41;9767540;29;101047;-94
2023/08/26 07:24:25;;;;;;;;;;;27.60;91.80;;;26.75;67.60;99753.72;9759172;29;97312;-93
2023/08/26 07:29:35;;;;;;;;;;;27.80;91.60;;;27.09;67.58;99753.69;9768102;29;97472;-92
2023/08/26 07:34:38;;;;;;;;;;;28.10;91.50;;;27.30;65.93;99750.78;9759619;29;98106;-92
2023/08/26 07:39:42;;;;;;;;;;;28.30;90.90;;;27.49;66.17;99754.38;9777944;29;98108;-94
2023/08/26 07:44:46;;;;;;;;;;;28.50;91.00;;;27.68;64.93;99755.22;9769000;29;97968;-92
2023/08/26 07:49:54;;;;;;;;;;;28.60;90.10;;;27.81;63.83;99744.72;9752771;29;96877;-91
2023/08/26 07:54:58;;;;;;;;;;;28.80;89.90;;;28.05;63.16;99755.59;9761440;29;97572;-90
2023/08/26 08:00:02;;;;;;;;;;;29.00;89.80;;;28.21;61.74;99744.19;9769720;29;96796;-90
2023/08/26 08:05:07;;;;;;;;;;;29.10;89.10;;;28.41;62.29;99743.06;9757499;29;101841;-92
2023/08/26 08:10:11;;;;;;;;;;;29.30;89.00;;;28.54;61.79;99745.03;9786373;29;97396;-90
2023/08/26 08:15:14;;;;;;;;;;;29.50;88.40;;;28.68;60.85;99736.09;9750979;29;98014;-91
2023/08/26 08:20:19;;;;;;;;;;;29.70;87.90;;;28.80;60.80;99731.78;9766733;29;97109;-90
2023/08/26 08:25:24;;;;;;;;;;;29.80;87.20;;;28.99;61.61;99731.75;9767586;29;97053;-90
2023/08/26 08:30:28;;;;;;;;;;;30.00;87.90;;;29.16;60.36;99730.38;9788572;29;98604;-90
2023/08/26 08:35:32;;;;;;;;;;;30.20;86.90;;;29.36;59.90;99729.97;9770017;29;97193;-88
2023/08/26 08:40:37;;;;;;;;;;;30.30;86.20;;;29.52;58.97;99734.06;9801054;29;97045;-89
2023/08/26 08:45:42;;;;;;;;;;;30.50;85.90;;;29.76;58.19;99722.88;9818203;29;96624;-88
2023/08/26 08:50:46;;;;;;;;;;;30.70;84.80;;;29.96;58.00;99715.31;9772205;29;97667;-88
2023/08/26 08:55:50;;;;;;;;;;;30.90;84.50;;;30.21;57.05;99716.69;9758634;29;97320;-89
2023/08/26 09:00:54;;;;;;;;;;;31.20;83.90;;;30.31;55.80;99700.84;9762632;29;100318;-88
2023/08/26 09:05:58;;;;;;;;;;;31.30;82.50;;;30.51;55.11;99694.03;9773174;29;97591;-88
2023/08/26 09:11:01;;;;;;;;;;;31.50;82.10;;;30.82;54.08;99688.59;9787096;29;97078;-89
2023/08/26 09:16:05;;;;;;;;;;;31.80;81.40;;;30.92;53.53;99682.84;9795138;29;97227;-89
2023/08/26 09:21:10;;;;;;;;;;;31.90;80.60;;;31.12;54.06;99686.16;9801038;29;97755;-88
2023/08/26 09:26:16;;;;;;;;;;;32.10;80.50;;;31.25;52.21;99684.44;9791077;29;98949;-88
2023/08/26 09:31:20;;;;;;;;;;;32.30;79.50;;;31.57;49.14;99681.31;9792934;29;96621;-88
2023/08/26 09:36:40;;;;;;;;;;;32.60;75.20;;;31.98;47.92;99682.06;9777972;29;96853;-88
2023/08/26 09:41:45;;;;;;;;;;;32.90;74.70;;;32.30;46.36;99672.50;9789943;29;96903;-89
2023/08/26 09:46:49;;;;;;;;;;;33.20;72.30;;;32.61;45.82;99678.59;9787114;29;97019;-88
2023/08/26 09:51:54;;;;;;;;;;;33.50;73.10;;;32.84;44.49;99670.94;9770032;29;96860;-89
2023/08/26 09:56:58;;;;;;;;;;;33.70;70.20;;;33.08;44.46;99670.38;9771302;29;96667;-89
2023/08/26 10:02:03;;;;;;;;;;;34.00;70.70;;;33.32;44.71;99663.47;9755932;29;98266;-88
2023/08/26 10:07:07;;;;;;;;;;;34.20;70.70;;;33.46;42.75;99661.31;9774558;29;97012;-89
2023/08/26 10:12:19;;;;;;;;;;;34.30;68.00;;;33.53;42.20;99656.09;9773720;29;96606;-90
2023/08/26 10:17:25;;;;;;;;;;;34.40;67.30;;;33.69;42.07;99654.34;9771543;29;96692;-90
2023/08/26 10:22:30;;;;;;;;;;;34.50;66.70;;;33.76;40.87;99649.09;9790431;29;96673;-90
2023/08/26 10:27:34;;;;;;;;;;;34.70;65.40;;;33.86;41.44;99647.09;9771879;29;96936;-89
2023/08/26 10:32:43;;;;;;;;;;;34.70;66.40;;;34.00;39.96;99647.66;9767808;29;98390;-89
2023/08/26 10:37:48;;;;;;;;;;;34.80;64.20;;;34.10;40.46;99638.97;9773055;29;96582;-90
2023/08/26 10:43:09;;;;;;;;;;;35.00;64.70;;;34.25;40.95;99630.06;9787704;29;97015;-88
2023/08/26 10:48:13;;;;;;;;;;;35.00;65.20;;;34.33;40.66;99625.63;9780294;29;98162;-88
2023/08/26 10:53:20;;;;;;;;;;;35.20;65.30;;;34.51;39.11;99627.06;9784341;29;96798;-89
2023/08/26 10:58:41;;;;;;;;;;;35.40;62.40;;;34.62;38.63;99624.69;9780218;29;96640;-89
2023/08/26 11:03:45;;;;;;;;;;;35.50;62.00;;;34.73;39.92;99601.00;9773993;29;96902;-89
2023/08/26 11:08:57;;;;;;;;;;;35.60;63.70;;;34.95;39.11;99604.47;9790385;29;96938;-89
2023/08/26 11:14:00;;;;;;;;;;;35.80;62.80;;;35.07;38.06;99588.72;9785838;29;96666;-88
2023/08/26 11:19:06;;;;;;;;;;;35.90;62.30;;;35.14;37.75;99586.16;9771143;29;96656;-88
2023/08/26 11:24:10;;;;;;;;;;;36.00;61.20;;;35.23;37.63;99583.31;9776143;29;97629;-90
2023/08/26 11:29:14;;;;;;;;;;;36.10;61.40;;;35.26;37.18;99584.56;9785837;29;96613;-89
2023/08/26 11:34:24;;;;;;;;;;;36.10;60.00;;;35.30;37.58;99580.75;9757614;29;97684;-89
2023/08/26 11:39:31;;;;;;;;;;;36.20;60.70;;;35.46;36.92;99580.88;9789021;29;97625;-89
2023/08/26 11:44:36;;;;;;;;;;;36.30;59.90;;;35.46;35.64;99580.06;9800867;29;96915;-88
2023/08/26 11:49:40;;;;;;;;;;;36.50;59.40;;;35.63;36.41;99580.59;9791456;29;96630;-89
2023/08/26 11:54:44;;;;;;;;;;;36.60;59.40;;;36.00;36.28;99574.16;9794153;29;96831;-89
2023/08/26 11:59:47;;;;;;;;;;;36.80;59.10;;;36.14;35.73;99567.03;9797066;29;96823;-89
2023/08/26 12:04:56;;;;;;;;;;;37.00;58.60;;;36.44;35.56;99559.16;9777323;29;96633;-89
2023/08/26 12:10:11;;;;;;;;;;;37.20;58.50;;;36.61;33.95;99574.59;9792740;29;97011;-88
2023/08/26 12:15:17;;;;;;;;;;;37.30;56.50;;;36.62;32.51;99565.13;9790238;29;96848;-90
2023/08/26 12:20:26;;;;;;;;;;;37.40;55.30;;;36.54;33.81;99568.09;9771110;29;96762;-89
2023/08/26 12:25:35;;;;;;;;;;;37.30;56.50;;;36.43;33.58;99570.56;9797097;29;96666;-90
2023/08/26 12:30:43;;;;;;;;;;;37.30;55.90;;;36.44;33.78;99572.97;9791443;29;96928;-88
2023/08/26 12:35:47;;;;;;;;;;;37.40;55.90;;;36.59;33.61;99565.84;9777058;29;97003;-89
2023/08/26 12:40:51;;;;;;;;;;;37.50;55.70;;;36.67;33.60;99553.78;9772991;29;96904;-89
2023/08/26 12:45:55;;;;;;;;;;;37.60;55.50;;;36.84;32.88;99549.84;9800903;29;97012;-89
2023/08/26 12:50:59;;;;;;;;;;;37.70;55.40;;;36.93;32.32;99546.91;9775071;29;98122;-89
2023/08/26 12:56:03;;;;;;;;;;;37.70;54.60;;;36.85;32.27;99537.59;9800655;29;97195;-89
2023/08/26 13:01:06;;;;;;;;;;;37.70;54.80;;;36.72;32.87;99536.91;9799469;29;97083;-90
2023/08/26 13:06:11;;;;;;;;;;;37.60;54.60;;;36.65;33.07;99527.63;9817535;29;96880;-92
2023/08/26 13:11:14;;;;;;;;;;;37.50;54.90;;;36.64;32.69;99534.31;9765961;29;96860;-90
2023/08/26 13:16:18;;;;;;;;;;;37.50;54.60;;;36.57;33.73;99523.88;9759276;29;97001;-89
2023/08/26 13:21:21;;;;;;;;;;;37.40;55.20;;;36.49;33.20;99510.25;9763615;29;97889;-91
2023/08/26 13:26:25;;;;;;;;;;;37.40;55.10;;;36.47;33.72;99507.84;9784690;29;98220;-90
2023/08/26 13:31:28;;;;;;;;;;;37.40;55.00;;;36.40;34.60;99505.66;9774460;29;96922;-90
2023/08/26 13:36:32;;;;;;;;;;;37.40;55.70;;;36.35;33.63;99517.00;9785357;29;97268;-90
2023/08/26 13:41:55;;;;;;;;;;;37.40;54.90;;;36.16;33.32;99514.91;9774404;29;97674;-90
2023/08/26 13:47:00;;;;;;;;;;;37.20;54.40;;;36.04;34.13;99509.47;9772665;29;97267;-92
2023/08/26 13:52:04;;;;;;;;;;;37.00;55.00;;;36.03;33.68;99504.28;9755830;29;98622;-90
2023/08/26 13:57:08;;;;;;;;;;;36.90;55.30;;;35.99;33.86;99500.63;9780105;29;97289;-94
2023/08/26 14:02:12;;;;;;;;;;;36.90;54.60;;;35.81;33.67;99500.16;9783071;29;99332;-91
2023/08/26 14:07:16;;;;;;;;;;;36.60;54.20;;;35.73;34.56;99501.88;9777907;29;96789;-91
2023/08/26 14:12:20;;;;;;;;;;;36.60;55.20;;;35.77;34.42;99497.28;9778148;29;96788;-91
2023/08/26 14:17:23;;;;;;;;;;;36.70;54.80;;;35.79;33.84;99489.41;9763932;29;96685;-90
2023/08/26 14:22:27;;;;;;;;;;;36.80;54.70;;;35.82;33.82;99494.25;9774350;29;97108;-91
2023/08/26 14:27:30;;;;;;;;;;;36.80;54.30;;;36.06;34.33;99487.81;9788068;29;97069;-91
2023/08/26 14:32:34;;;;;;;;;;;37.30;54.60;;;36.38;33.14;99488.59;9772880;29;96915;-89
2023/08/26 14:37:39;;;;;;;;;;;37.80;53.20;;;36.57;32.59;99485.13;9772460;29;97405;-90
2023/08/26 14:42:43;;;;;;;;;;;38.00;52.90;;;36.65;31.87;99486.13;9774047;29;97618;-90
2023/08/26 14:47:46;;;;;;;;;;;38.10;52.20;;;36.39;32.46;99479.19;9750793;29;99755;-90
2023/08/26 14:52:51;;;;;;;;;;;37.60;52.80;;;35.99;33.46;99497.84;9775697;29;97196;-89
2023/08/26 14:57:55;;;;;;;;;;;37.00;53.50;;;35.58;34.46;99484.13;9756504;29;96843;-89
2023/08/26 15:02:59;;;;;;;;;;;36.60;54.80;;;35.31;35.26;99496.72;9757772;29;98641;-89
2023/08/26 15:08:03;;;;;;;;;;;36.30;55.50;;;35.07;36.94;99491.28;9783959;29;98838;-90
2023/08/26 15:13:07;;;;;;;;;;;35.90;56.30;;;34.95;37.26;99488.53;9777658;29;96933;-89
2023/08/26 15:18:10;;;;;;;;;;;35.90;56.80;;;34.81;37.40;99477.84;9775452;29;96766;-89
2023/08/26 15:23:15;;;;;;;;;;;35.80;56.90;;;34.63;36.18;99477.28;9781258;29;96908;-90
2023/08/26 15:28:19;;;;;;;;;;;35.50;56.30;;;34.82;35.69;99471.19;9783207;29;96640;-89
2023/08/26 15:33:22;;;;;;;;;;;35.80;55.50;;;35.22;35.97;99464.91;9785087;29;96578;-90
2023/08/26 15:38:26;;;;;;;;;;;36.30;56.10;;;35.53;34.95;99464.25;9788794;29;97194;-89
2023/08/26 15:43:30;;;;;;;;;;;36.60;55.00;;;35.58;35.26;99456.50;9786098;29;96715;-89
2023/08/26 15:48:36;;;;;;;;;;;36.70;55.30;;;35.67;34.10;99450.81;9781976;29;96965;-89
2023/08/26 15:53:39;;;;;;;;;;;36.80;54.70;;;35.78;34.34;99446.34;9771813;29;97970;-91
2023/08/26 15:58:43;;;;;;;;;;;36.90;54.90;;;35.89;33.96;99438.34;9789165;29;97020;-90
2023/08/26 16:03:46;;;;;;;;;;;37.00;53.70;;;35.94;34.45;99434.56;9770301;29;96990;-90
2023/08/26 16:08:50;;;;;;;;;;;37.00;54.30;;;35.88;33.85;99414.63;9790757;29;96675;-89
2023/08/26 16:13:55;;;;;;;;;;;37.00;53.80;;;35.77;33.95;99411.59;9797386;29;97051;-90
2023/08/26 16:18:58;;;;;;;;;;;36.90;54.30;;;35.58;34.68;99419.78;9770848;29;96710;-90
2023/08/26 16:24:03;;;;;;;;;;;36.60;54.70;;;35.37;36.01;99415.22;9757315;29;97100;-90
2023/08/26 16:29:06;;;;;;;;;;;36.30;55.60;;;35.07;35.99;99400.97;9776242;29;96911;-91
2023/08/26 16:34:09;;;;;;;;;;;36.00;55.80;;;34.85;37.02;99396.78;9776414;29;98338;-91
2023/08/26 16:39:13;;;;;;;;;;;35.80;56.70;;;34.62;38.23;99398.44;9776275;29;96549;-91
2023/08/26 16:44:17;;;;;;;;;;;35.50;57.10;;;34.38;40.11;99390.16;9775096;29;97222;-91
2023/08/26 16:49:21;;;;;;;;;;;35.30;59.20;;;34.03;39.08;99394.19;9787531;29;98037;-91
2023/08/26 16:54:27;;;;;;;;;;;34.90;58.40;;;33.72;39.43;99389.19;9783165;29;98153;-90
2023/08/26 16:59:31;;;;;;;;;;;34.50;58.60;;;33.43;41.47;99392.09;9750370;29;97462;-92
2023/08/26 17:04:34;;;;;;;;;;;34.20;60.00;;;33.10;41.91;99394.81;9752841;29;98525;-90
2023/08/26 17:09:38;;;;;;;;;;;33.90;60.80;;;32.70;43.12;99381.50;9778685;29;97750;-89
2023/08/26 17:14:43;;;;;;;;;;;33.40;61.70;;;32.36;44.85;99388.84;9763111;29;98774;-90
2023/08/26 17:19:47;;;;;;;;;;;33.10;63.40;;;31.96;44.97;99374.63;9787233;29;96884;-90
2023/08/26 17:24:51;;;;;;;;;;;32.70;63.80;;;31.63;46.09;99383.44;9789362;29;96890;-90
2023/08/26 17:29:56;;;;;;;;;;;32.30;64.50;;;31.31;46.37;99382.06;9782326;29;97177;-96
2023/08/26 17:34:59;;;;;;;;;;;32.00;65.20;;;31.00;47.09;99384.94;9762426;29;98616;-91
2023/08/26 17:40:04;;;;;;;;;;;31.70;66.00;;;30.72;48.06;99395.44;9771011;29;98398;-90
2023/08/26 17:45:11;;;;;;;;;;;31.30;66.70;;;30.44;49.43;99400.34;9758722;29;98987;-92
2023/08/26 17:50:16;;;;;;;;;;;31.10;67.40;;;30.15;50.61;99406.38;9758380;29;97888;-92
2023/08/26 17:55:19;;;;;;;;;;;30.80;68.70;;;29.86;51.86;99413.16;9754524;29;99113;-92
2023/08/26 18:01:16;;;;;;;14.40;6.13;;;30.50;69.00;;;29.56;51.30;99422.16;10522782;27;97044;-93
2023/08/26 18:06:22;;;;;;;12.00;6.22;;;30.20;68.80;;;29.29;51.53;99425.84;10433540;27;97168;-93
2023/08/26 18:11:26;;;;;;;14.75;6.60;;;30.00;69.70;;;29.11;53.03;99433.09;10454315;27;97906;-94
2023/08/26 18:16:29;;;;;;;10.90;6.43;;;29.80;70.90;;;28.89;54.09;99452.97;10437957;27;98478;-93
2023/08/26 18:21:33;;;;;;;9.98;7.07;;;29.60;72.10;;;28.72;55.24;99456.34;10451914;27;98620;-93
2023/08/26 18:26:37;;;;;;;16.77;8.70;;;29.40;72.60;;;28.56;55.72;99467.91;10447110;27;97279;-93
2023/08/26 18:31:41;;;;;;;25.60;14.57;;;29.30;73.40;;;28.36;57.01;99475.38;10431107;27;97764;-93
2023/08/26 18:36:45;;;;;;;15.27;10.40;;;29.10;74.20;;;28.14;58.91;99480.72;10437606;27;98277;-93
2023/08/26 18:41:49;;;;;;;14.82;9.07;;;28.80;75.30;;;27.93;59.52;99478.34;10439715;27;97628;-92
2023/08/26 18:46:53;;;;;;;19.23;9.50;;;28.60;76.00;;;27.68;60.80;99487.75;10458536;27;99818;-92
2023/08/26 18:51:57;;;;;;;11.82;7.28;;;28.40;77.10;;;27.59;60.83;99492.28;10449950;27;98589;-92
2023/08/26 18:57:01;;;;;;;19.40;15.98;;;28.30;77.50;;;27.48;62.04;99505.25;10438997;27;98600;-93
2023/08/26 19:02:04;;;;;;;27.52;20.17;;;28.20;77.90;;;27.40;62.53;99499.63;10442984;27;98233;-92
2023/08/26 19:07:08;;;;;;;17.58;8.73;;;28.10;78.50;;;27.25;63.55;99517.06;10424070;27;97302;-91
2023/08/26 19:12:12;;;;;;;10.65;8.90;;;28.00;78.70;;;27.11;64.74;99506.06;10412634;27;97118;-92
2023/08/26 19:17:16;;;;;;;11.25;7.25;;;27.90;79.20;;;26.97;65.29;99505.13;10403956;27;98668;-93
2023/08/26 19:22:20;;;;;;;12.35;7.95;;;27.80;79.70;;;26.89;65.13;99512.06;10429787;27;98640;-94
2023/08/26 19:27:24;;;;;;;9.93;7.78;;;27.70;80.20;;;26.78;66.14;99507.03;10429603;27;97226;-93
2023/08/26 19:32:29;;;;;;;8.82;6.70;;;27.60;80.40;;;26.70;65.69;99499.50;10443793;27;98789;-95
2023/08/26 19:37:33;;;;;;;9.90;6.80;;;27.50;80.50;;;26.62;66.53;99492.75;10422728;27;97166;-94
2023/08/26 19:42:37;;;;;;;8.25;6.28;;;27.50;80.70;;;26.52;66.78;99484.72;10412548;27;97101;-94
2023/08/26 19:47:41;;;;;;;7.88;5.70;;;27.40;81.10;;;26.40;66.85;99499.56;10425424;27;97625;-95
2023/08/26 19:52:46;;;;;;;9.50;5.70;;;27.30;81.20;;;26.36;66.69;99495.75;10418517;27;97254;-94
2023/08/26 19:57:49;;;;;;;7.45;6.05;;;27.20;81.20;;;26.25;66.96;99480.59;10408906;27;98092;-94
2023/08/26 20:02:54;;;;;;;8.73;5.88;;;27.10;81.40;;;26.11;67.16;99472.31;10406566;27;97172;-94
2023/08/26 20:07:58;;;;;;;7.35;5.93;;;27.00;81.70;;;26.02;68.16;99478.66;10426229;27;97731;-95
2023/08/26 20:13:03;;;;;;;7.40;5.40;;;26.80;82.20;;;25.88;68.62;99479.34;10404780;27;97723;-93
2023/08/26 20:18:08;;;;;;;8.52;5.18;;;26.70;82.80;;;25.68;68.74;99455.00;10416501;27;97304;-94
2023/08/26 20:23:12;;;;;;;5.85;4.85;;;26.50;83.10;;;25.63;68.52;99457.78;10406789;27;98098;-93
2023/08/26 20:28:16;;;;;;;11.32;8.32;;;26.40;83.20;;;25.61;68.67;99479.03;10423280;27;96593;-93
2023/08/26 20:33:20;;;;;;;9.25;5.82;;;26.40;83.30;;;25.49;69.56;99467.66;10417560;27;96848;-93
2023/08/26 20:38:24;;;;;;;9.07;6.15;;;26.30;83.90;;;25.34;69.88;99469.41;10410805;27;96815;-94
2023/08/26 20:43:28;;;;;;;8.23;6.50;;;26.20;84.10;;;25.16;70.82;99469.28;10421266;27;97124;-92
2023/08/26 20:48:33;;;;;;;8.05;6.05;;;26.10;84.40;;;25.08;70.83;99479.66;10440430;27;96737;-93
2023/08/26 20:53:37;;;;;;;11.65;8.75;;;25.90;84.50;;;25.00;70.91;99472.03;10417635;27;97311;-93
2023/08/26 20:58:41;;;;;;;12.43;8.55;;;25.90;84.80;;;24.92;71.91;99490.84;10431235;27;97209;-91
2023/08/26 21:03:45;;;;;;;10.65;7.93;;;25.80;85.50;;;24.79;72.98;99482.22;10411521;27;98368;-92
2023/08/26 21:08:49;;;;;;;9.25;6.55;;;25.70;86.10;;;24.73;72.91;99502.34;10412433;27;97957;-92
2023/08/26 21:13:53;;;;;;;7.25;6.00;;;25.60;86.50;;;24.68;73.50;99505.06;10416827;27;96762;-92
2023/08/26 21:18:59;;;;;;;7.43;6.72;;;25.50;86.80;;;24.57;74.04;99495.31;10426019;27;96661;-92
2023/08/26 21:24:03;;;;;;;10.02;6.10;;;25.40;87.20;;;24.49;74.17;99504.06;10424862;27;96808;-91
2023/08/26 21:29:07;;;;;;;8.30;6.32;;;25.40;87.60;;;24.45;74.74;99506.50;10431120;27;96582;-92
2023/08/26 21:34:14;;;;;;;8.25;6.40;;;25.40;88.00;;;24.40;74.92;99495.66;10418703;27;96729;-92
2023/08/26 21:39:18;;;;;;;8.55;6.47;;;25.30;88.20;;;24.28;76.03;99504.06;10425939;27;96701;-92
2023/08/26 21:44:22;;;;;;;9.70;5.82;;;25.20;88.50;;;24.27;76.15;99523.34;10429161;27;96637;-92
2023/08/26 21:49:26;;;;;;;7.53;5.72;;;25.10;88.80;;;24.16;76.74;99511.69;10414982;27;98533;-93
2023/08/26 21:54:29;;;;;;;7.97;6.00;;;25.00;89.10;;;24.11;76.61;99525.28;10416384;27;96590;-93
2023/08/26 21:59:33;;;;;;;7.05;5.90;;;25.00;89.40;;;24.06;77.03;99519.06;10383645;28;97284;-93
2023/08/26 22:04:36;;;;;;;8.32;5.65;;;24.90;89.60;;;24.07;76.46;99516.06;10369206;28;96689;-93
2023/08/26 22:09:43;;;;;;;7.15;5.85;;;24.90;89.70;;;24.02;76.80;99499.78;10384407;28;97518;-93
2023/08/26 22:14:47;;;;;;;8.95;6.20;;;24.90;89.70;;;23.97;77.16;99502.47;10390775;28;96719;-93
2023/08/26 22:19:51;;;;;;;8.15;6.22;;;24.80;90.00;;;23.90;77.71;99504.66;10384941;28;96566;-93
2023/08/26 22:24:54;;;;;;;8.57;6.65;;;24.70;90.20;;;23.81;77.94;99480.00;10375333;28;97538;-92
2023/08/26 22:29:58;;;;;;;10.05;6.05;;;24.70;90.30;;;23.80;77.84;99481.06;10372020;28;98115;-92
2023/08/26 22:35:03;;;;;;;5.95;5.35;;;24.60;90.20;;;23.69;77.38;99457.72;10367809;28;97017;-93
2023/08/26 22:40:07;;;;;;;7.38;5.03;;;24.60;90.40;;;23.64;78.09;99457.75;10369625;28;97214;-93
2023/08/26 22:45:11;;;;;;;6.50;5.30;;;24.60;90.50;;;23.61;78.13;99461.78;10396402;27;97436;-94
2023/08/26 22:50:15;;;;;;;5.32;4.82;;;24.40;90.60;;;23.48;78.67;99452.28;10398033;28;98377;-94